createdAt,value
2022-10-12T00:02:19.450Z,56.35
2022-10-12T00:07:21.827Z,56.31
2022-10-12T00:12:23.970Z,56.94
2022-10-12T00:17:26.233Z,56.56
2022-10-12T00:22:28.581Z,56.41
2022-10-12T00:27:30.947Z,56.34
2022-10-12T00:32:33.106Z,56.43
2022-10-12T00:37:35.852Z,56.12
2022-10-12T00:42:38.301Z,56.46
2022-10-12T00:47:45.332Z,56.39
2022-10-12T00:52:56.215Z,56.39
2022-10-12T00:58:00.071Z,56.59
2022-10-12T01:03:02.634Z,56.52
2022-10-12T01:08:04.873Z,57.31
2022-10-12T01:13:07.553Z,57.38
2022-10-12T01:18:38.648Z,57.79
2022-10-12T01:24:06.765Z,58.30
2022-10-12T01:29:22.478Z,58.50
2022-10-12T01:34:35.585Z,58.97
2022-10-12T01:39:54.415Z,59.25
2022-10-12T01:45:08.544Z,59.82
2022-10-12T01:50:14.705Z,60.05
2022-10-12T01:55:30.782Z,60.02
2022-10-12T02:00:42.532Z,60.20
2022-10-12T02:06:11.750Z,60.12
2022-10-12T02:11:16.986Z,60.49
2022-10-12T02:16:28.791Z,60.61
2022-10-12T02:21:33.456Z,60.90
2022-10-12T02:26:39.939Z,61.36
2022-10-12T02:31:56.506Z,60.97
2022-10-12T02:37:13.871Z,61.15
2022-10-12T02:42:22.239Z,61.89
2022-10-12T02:47:27.681Z,61.70
2022-10-12T02:52:32.570Z,61.94
2022-10-12T02:57:34.994Z,62.14
2022-10-12T03:02:37.544Z,62.34
2022-10-12T03:07:40.271Z,62.62
2022-10-12T03:12:46.487Z,64.11
2022-10-12T03:17:51.607Z,65.50
2022-10-12T03:22:53.810Z,66.93
2022-10-12T03:27:55.985Z,65.80
2022-10-12T03:32:58.440Z,67.40
2022-10-12T03:38:00.598Z,67.83
2022-10-12T03:43:03.243Z,67.22
2022-10-12T03:48:07.286Z,66.86
2022-10-12T03:53:10.381Z,67.17
2022-10-12T03:58:13.498Z,67.09
2022-10-12T04:03:15.782Z,67.16
2022-10-12T04:08:18.279Z,67.47
2022-10-12T04:13:21.011Z,67.59
2022-10-12T04:18:23.538Z,68.03
2022-10-12T04:23:25.895Z,67.76
2022-10-12T04:28:28.317Z,67.95
2022-10-12T04:33:30.565Z,67.94
2022-10-12T04:38:32.743Z,68.11
2022-10-12T04:43:34.963Z,68.20
2022-10-12T04:48:37.230Z,68.40
2022-10-12T04:53:40.023Z,68.75
2022-10-12T04:58:42.266Z,69.14
2022-10-12T05:03:44.884Z,68.97
2022-10-12T05:08:47.028Z,69.03
2022-10-12T05:13:49.258Z,68.75
2022-10-12T05:18:51.486Z,68.21
2022-10-12T05:23:53.679Z,67.96
2022-10-12T05:28:55.982Z,68.02
2022-10-12T05:33:58.168Z,67.93
2022-10-12T05:39:00.316Z,67.65
2022-10-12T05:44:02.497Z,67.62
2022-10-12T05:49:04.657Z,67.41
2022-10-12T05:54:07.193Z,67.80
2022-10-12T05:59:09.397Z,67.75
2022-10-12T06:04:13.297Z,68.45
2022-10-12T06:09:15.828Z,68.07
2022-10-12T06:14:17.971Z,68.18
2022-10-12T06:19:20.125Z,67.93
2022-10-12T06:24:22.454Z,68.95
2022-10-12T06:29:25.364Z,69.92
2022-10-12T06:34:27.686Z,69.16
2022-10-12T06:39:29.869Z,68.41
2022-10-12T06:44:33.192Z,68.43
2022-10-12T06:49:35.394Z,68.55
2022-10-12T06:54:37.809Z,67.76
2022-10-12T06:59:40.514Z,67.55
2022-10-12T07:04:43.186Z,67.38
2022-10-12T07:09:45.843Z,66.97
2022-10-12T07:14:48.382Z,66.86
2022-10-12T07:19:50.533Z,66.99
2022-10-12T07:24:52.951Z,66.73
2022-10-12T07:29:55.276Z,66.63
2022-10-12T07:34:57.684Z,65.90
2022-10-12T07:40:00.304Z,65.39
2022-10-12T07:45:03.075Z,64.81
2022-10-12T07:50:05.550Z,64.30
2022-10-12T07:55:08.533Z,64.07
2022-10-12T08:00:11.430Z,63.32
2022-10-12T08:05:13.834Z,63.28
2022-10-12T08:10:17.030Z,63.58
2022-10-12T08:15:19.393Z,62.82
2022-10-12T08:20:21.587Z,62.57
2022-10-12T08:25:23.805Z,62.20
2022-10-12T08:30:27.442Z,61.43
2022-10-12T08:35:36.355Z,61.18
2022-10-12T08:40:54.159Z,60.62
2022-10-12T08:46:03.434Z,59.96
2022-10-12T08:51:08.405Z,60.34
2022-10-12T08:56:17.757Z,59.19
2022-10-12T09:01:37.650Z,58.69
2022-10-12T09:06:58.719Z,58.05
2022-10-12T09:12:19.490Z,58.07
2022-10-12T09:17:21.825Z,57.53
2022-10-12T09:22:24.833Z,57.30
2022-10-12T09:27:32.085Z,56.89
2022-10-12T09:32:57.487Z,56.76
2022-10-12T09:38:01.278Z,56.72
2022-10-12T09:43:04.318Z,56.40
2022-10-12T09:48:12.672Z,56.19
2022-10-12T09:53:32.323Z,55.66
2022-10-12T09:58:58.662Z,55.34
2022-10-12T10:04:14.755Z,54.82
2022-10-12T10:09:32.260Z,54.43
2022-10-12T10:14:35.921Z,54.03
2022-10-12T10:19:38.400Z,53.69
2022-10-12T10:24:40.667Z,53.59
2022-10-12T10:29:44.360Z,53.10
2022-10-12T10:34:46.712Z,52.88
2022-10-12T10:39:51.899Z,52.67
2022-10-12T10:45:09.283Z,52.58
2022-10-12T10:50:37.395Z,52.75
2022-10-12T10:55:42.561Z,52.63
2022-10-12T11:00:48.478Z,52.53
2022-10-12T11:06:21.404Z,52.35
2022-10-12T11:11:27.254Z,52.57
2022-10-12T11:16:46.433Z,52.93
2022-10-12T11:21:53.731Z,53.52
2022-10-12T11:27:48.047Z,53.91
2022-10-12T11:33:02.084Z,54.03
2022-10-12T11:38:11.563Z,53.88
2022-10-12T11:43:23.006Z,54.27
2022-10-12T11:48:39.327Z,54.82
2022-10-12T11:53:56.897Z,55.37
2022-10-12T11:59:04.280Z,56.39
2022-10-12T12:04:40.393Z,57.32
2022-10-12T12:09:49.346Z,58.51
2022-10-12T12:14:55.864Z,59.71
2022-10-12T12:20:01.114Z,60.33
2022-10-12T12:25:11.163Z,60.97
2022-10-12T12:30:19.695Z,61.01
2022-10-12T12:35:39.163Z,61.63
2022-10-12T12:40:42.873Z,61.67
2022-10-12T12:45:57.125Z,61.76
2022-10-12T12:51:03.153Z,61.75
2022-10-12T12:56:32.729Z,62.02
2022-10-12T13:01:52.239Z,62.15
2022-10-12T13:07:13.119Z,61.71
2022-10-12T13:12:59.963Z,61.86
2022-10-12T13:18:45.289Z,61.73
2022-10-12T13:23:47.483Z,61.44
2022-10-12T13:28:51.435Z,61.12
2022-10-12T13:34:21.594Z,61.12
2022-10-12T13:39:23.944Z,61.07
2022-10-12T13:44:29.828Z,61.00
2022-10-12T13:49:44.726Z,61.31
2022-10-12T13:54:49.233Z,61.12
2022-10-12T14:00:01.659Z,61.00
2022-10-12T14:05:06.999Z,61.17
2022-10-12T14:10:19.586Z,60.85
2022-10-12T14:15:24.596Z,60.69
2022-10-12T14:20:39.684Z,60.55
2022-10-12T14:25:55.114Z,60.52
2022-10-12T14:30:57.852Z,60.19
2022-10-12T14:36:38.567Z,60.16
2022-10-12T14:41:51.187Z,60.18
2022-10-12T14:46:57.744Z,60.13
2022-10-12T14:52:00.749Z,59.92
2022-10-12T14:57:14.174Z,59.61
2022-10-12T15:02:29.558Z,59.29
2022-10-12T15:07:33.593Z,59.20
2022-10-12T15:12:36.572Z,58.84
2022-10-12T15:17:39.036Z,58.62
2022-10-12T15:22:41.450Z,58.80
2022-10-12T15:27:43.640Z,58.89
2022-10-12T15:32:45.931Z,58.89
2022-10-12T15:37:49.343Z,58.93
2022-10-12T15:42:51.909Z,59.23
2022-10-12T15:47:57.853Z,59.52
2022-10-12T15:53:00.094Z,59.73
2022-10-12T15:58:02.699Z,59.82
2022-10-12T16:03:05.115Z,60.00
2022-10-12T16:08:07.538Z,60.06
2022-10-12T16:13:13.575Z,60.50
2022-10-12T16:18:16.239Z,60.35
2022-10-12T16:23:24.995Z,60.55
2022-10-12T16:28:27.210Z,60.54
2022-10-12T16:33:29.971Z,60.35
2022-10-12T16:38:32.175Z,60.18
2022-10-12T16:43:34.377Z,60.15
2022-10-12T16:48:37.316Z,60.35
2022-10-12T16:53:40.353Z,60.02
2022-10-12T16:58:42.654Z,60.08
2022-10-12T17:03:45.181Z,60.28
2022-10-12T17:08:47.516Z,60.00
2022-10-12T17:13:49.788Z,59.87
2022-10-12T17:18:56.844Z,60.07
2022-10-12T17:24:01.608Z,60.02
2022-10-12T17:29:08.770Z,60.11
2022-10-12T17:34:29.771Z,60.06
2022-10-12T17:39:34.516Z,60.34
2022-10-12T17:44:36.923Z,60.11
2022-10-12T17:49:39.347Z,60.30
2022-10-12T17:54:41.774Z,60.37
2022-10-12T17:59:44.165Z,60.22
2022-10-12T18:04:46.448Z,60.10
2022-10-12T18:09:48.725Z,60.67
2022-10-12T18:14:51.056Z,60.37
2022-10-12T18:19:53.650Z,60.27
2022-10-12T18:24:56.159Z,60.39
2022-10-12T18:29:58.685Z,60.37
2022-10-12T18:35:01.124Z,60.40
2022-10-12T18:40:03.432Z,60.47
2022-10-12T18:45:06.086Z,60.58
2022-10-12T18:50:09.222Z,60.48
2022-10-12T18:55:11.535Z,60.67
2022-10-12T19:00:14.094Z,60.74
2022-10-12T19:05:16.348Z,60.81
2022-10-12T19:10:18.813Z,60.70
2022-10-12T19:15:21.600Z,60.89
2022-10-12T19:20:24.012Z,60.86
2022-10-12T19:25:26.343Z,60.78
2022-10-12T19:30:29.544Z,60.94
2022-10-12T19:35:32.310Z,61.07
2022-10-12T19:40:35.483Z,61.30
2022-10-12T19:45:41.649Z,61.15
2022-10-12T19:50:44.355Z,61.33
2022-10-12T19:55:46.670Z,61.54
2022-10-12T20:00:49.264Z,61.58
2022-10-12T20:05:51.655Z,61.55
2022-10-12T20:10:54.230Z,61.43
2022-10-12T20:15:57.350Z,61.52
2022-10-12T20:21:00.902Z,61.52
2022-10-12T20:26:07.919Z,61.42
2022-10-12T20:31:10.890Z,61.42
2022-10-12T20:36:20.155Z,61.47
2022-10-12T20:41:23.669Z,61.46
2022-10-12T20:46:27.305Z,61.59
2022-10-12T20:51:32.298Z,61.48
2022-10-12T20:56:34.671Z,61.63
2022-10-12T21:01:37.392Z,61.49
2022-10-12T21:06:40.410Z,61.38
2022-10-12T21:11:44.222Z,61.56
2022-10-12T21:16:46.623Z,61.48
2022-10-12T21:21:49.148Z,61.62
2022-10-12T21:26:52.379Z,61.83
2022-10-12T21:31:55.189Z,61.46
2022-10-12T21:36:58.146Z,61.43
2022-10-12T21:42:00.500Z,61.74
2022-10-12T21:47:02.782Z,62.00
2022-10-12T21:52:05.191Z,62.61
2022-10-12T21:57:07.648Z,62.61
2022-10-12T22:02:09.804Z,62.70
2022-10-12T22:07:12.027Z,63.45
2022-10-12T22:12:14.319Z,63.32
2022-10-12T22:17:16.646Z,63.10
2022-10-12T22:22:19.339Z,63.40
2022-10-12T22:27:21.775Z,64.16
2022-10-12T22:32:24.119Z,64.38
2022-10-12T22:37:26.549Z,64.27
2022-10-12T22:42:28.794Z,65.04
2022-10-12T22:47:31.207Z,64.42
2022-10-12T22:52:34.454Z,64.33
2022-10-12T22:57:36.739Z,64.32
2022-10-12T23:02:38.943Z,64.24
2022-10-12T23:07:41.341Z,64.22
2022-10-12T23:12:43.864Z,64.23
2022-10-12T23:17:46.208Z,64.21
2022-10-12T23:22:48.604Z,63.99
2022-10-12T23:27:50.836Z,64.16
2022-10-12T23:32:53.180Z,64.14
2022-10-12T23:37:55.522Z,64.12
2022-10-12T23:42:58.013Z,64.22
2022-10-12T23:48:00.425Z,64.14
2022-10-12T23:53:02.662Z,64.15
2022-10-12T23:58:05.896Z,64.25
